Abbeville, Georgia
Current Conditions -  °F | °C
As of 1:55 PM on Sunday 23 Nov 2014 (Local Time) from KEZM Reporting Station
Haze Haze  
Wind Chill: 19°   Ceiling: 300
Heat Index: 19°   Visibility: 1.5mi
Dew Point: 19°   Wind: 6mph
Humidity: 100%   Direction: 140°SE
Pressure: 29.85"   Gusts: NA
Location:  31.99°N, 83.31°W
Report Text: KEZM 231855Z AUTO 14005KT 1 1/2SM BR OVC003 19/19 A2985 RMK AO2 T01870187
Loading
Personal Weather Stations






























Interactive Weather Map New forecast layout! Learn more

10-Day Weather Forecast

Advertisements
Track Severe Weather on mobile